createdAt,value
2019-01-30T00:00:44.114Z,63.23
2019-01-30T00:01:44.274Z,50.78
2019-01-30T00:02:44.444Z,58.35
2019-01-30T00:03:44.606Z,49.80
2019-01-30T00:04:44.773Z,51.27
2019-01-30T00:05:44.943Z,52.98
2019-01-30T00:06:45.102Z,60.30
2019-01-30T00:07:45.282Z,49.32
2019-01-30T00:08:45.449Z,61.77
2019-01-30T00:09:45.620Z,52.49
2019-01-30T00:10:45.787Z,49.07
2019-01-30T00:11:45.948Z,48.10
2019-01-30T00:12:46.116Z,50.05
2019-01-30T00:13:46.286Z,49.07
2019-01-30T00:14:46.456Z,59.33
2019-01-30T00:15:55.762Z,51.51
2019-01-30T00:16:46.797Z,51.03
2019-01-30T00:17:46.957Z,52.25
2019-01-30T00:18:47.134Z,55.91
2019-01-30T00:19:47.289Z,53.47
2019-01-30T00:20:47.459Z,51.03
2019-01-30T00:21:47.626Z,50.78
2019-01-30T00:22:47.793Z,49.32
2019-01-30T00:23:47.978Z,52.98
2019-01-30T00:24:48.130Z,50.54
2019-01-30T00:25:48.295Z,53.96
2019-01-30T00:26:48.461Z,50.54
2019-01-30T00:27:48.629Z,56.64
2019-01-30T00:28:48.799Z,49.56
2019-01-30T00:29:48.976Z,57.13
2019-01-30T00:30:49.149Z,51.27
2019-01-30T00:31:49.301Z,50.54
2019-01-30T00:32:49.471Z,58.11
2019-01-30T00:33:49.637Z,55.18
2019-01-30T00:34:49.807Z,58.59
2019-01-30T00:35:49.974Z,52.49
2019-01-30T00:36:50.133Z,48.83
2019-01-30T00:37:50.321Z,56.15
2019-01-30T00:38:50.478Z,51.76
2019-01-30T00:39:50.647Z,50.29
2019-01-30T00:40:50.809Z,53.47
2019-01-30T00:41:50.977Z,51.76
2019-01-30T00:42:51.145Z,50.54
2019-01-30T00:43:51.315Z,50.05
2019-01-30T00:44:51.489Z,52.00
2019-01-30T00:45:51.649Z,50.78
2019-01-30T00:46:51.817Z,51.51
2019-01-30T00:47:52.003Z,50.54
2019-01-30T00:48:52.164Z,50.05
2019-01-30T00:49:52.345Z,50.78
2019-01-30T00:50:52.507Z,50.05
2019-01-30T00:51:52.672Z,52.25
2019-01-30T00:52:52.846Z,51.27
2019-01-30T00:53:53.024Z,51.03
2019-01-30T00:54:53.186Z,51.51
2019-01-30T00:55:53.350Z,57.37
2019-01-30T00:56:53.520Z,50.05
2019-01-30T00:57:53.689Z,50.05
2019-01-30T00:58:53.859Z,51.03
2019-01-30T00:59:54.023Z,56.64
2019-01-30T01:00:54.190Z,56.15
2019-01-30T01:01:54.453Z,49.56
2019-01-30T01:02:54.525Z,52.73
2019-01-30T01:03:54.701Z,52.49
2019-01-30T01:04:54.866Z,59.08
2019-01-30T01:06:55.193Z,51.03
2019-01-30T01:08:55.525Z,53.47
2019-01-30T01:09:55.695Z,51.03
2019-01-30T01:10:55.862Z,51.03
2019-01-30T01:11:56.033Z,51.27
2019-01-30T01:12:56.200Z,53.96
2019-01-30T01:13:56.369Z,53.96
2019-01-30T01:14:56.531Z,52.25
2019-01-30T01:15:56.709Z,50.78
2019-01-30T01:16:56.875Z,50.29
2019-01-30T01:17:57.041Z,49.32
2019-01-30T01:18:57.211Z,52.98
2019-01-30T01:19:57.389Z,52.00
2019-01-30T01:20:57.544Z,56.40
2019-01-30T01:21:57.706Z,61.52
2019-01-30T01:22:57.875Z,50.05
2019-01-30T01:23:58.040Z,52.00
2019-01-30T01:24:58.209Z,51.03
2019-01-30T01:25:58.383Z,48.83
2019-01-30T01:26:58.545Z,58.59
2019-01-30T01:27:58.712Z,50.05
2019-01-30T01:28:58.889Z,60.55
2019-01-30T01:29:59.059Z,61.77
2019-01-30T01:30:59.230Z,60.30
2019-01-30T01:31:59.404Z,61.77
2019-01-30T01:32:59.565Z,69.09
2019-01-30T01:33:59.743Z,64.70
2019-01-30T01:34:59.901Z,68.85
2019-01-30T01:36:00.069Z,59.08
2019-01-30T01:37:00.233Z,52.25
2019-01-30T01:38:00.395Z,50.29
2019-01-30T01:39:00.554Z,54.44
2019-01-30T01:40:00.722Z,48.83
2019-01-30T01:41:00.889Z,50.05
2019-01-30T01:42:01.057Z,60.30
2019-01-30T01:43:01.229Z,61.04
2019-01-30T01:44:01.396Z,51.27
2019-01-30T01:45:01.566Z,48.10
2019-01-30T01:46:01.726Z,48.34
2019-01-30T01:47:01.895Z,50.54
2019-01-30T01:48:02.073Z,51.27
2019-01-30T01:49:02.237Z,58.59
2019-01-30T01:50:02.401Z,50.78
2019-01-30T01:51:02.575Z,50.54
2019-01-30T01:52:02.745Z,54.44
2019-01-30T01:53:02.910Z,56.40
2019-01-30T01:54:03.078Z,49.07
2019-01-30T01:55:03.249Z,50.05
2019-01-30T01:56:03.415Z,52.25
2019-01-30T01:57:03.588Z,59.08
2019-01-30T01:58:03.749Z,48.34
2019-01-30T01:59:03.924Z,51.03
2019-01-30T02:00:04.084Z,50.29
2019-01-30T02:01:04.255Z,50.78
2019-01-30T02:02:04.435Z,56.40
2019-01-30T02:03:04.593Z,56.88
2019-01-30T02:04:04.760Z,49.32
2019-01-30T02:05:04.924Z,49.80
2019-01-30T02:06:05.090Z,50.05
2019-01-30T02:07:05.263Z,47.85
2019-01-30T02:08:05.420Z,47.61
2019-01-30T02:09:05.600Z,47.61
2019-01-30T02:10:05.763Z,47.36
2019-01-30T02:11:05.945Z,48.58
2019-01-30T02:12:06.105Z,49.07
2019-01-30T02:13:06.268Z,51.76
2019-01-30T02:14:06.439Z,50.54
2019-01-30T02:15:06.606Z,50.05
2019-01-30T02:16:06.777Z,49.07
2019-01-30T02:17:06.941Z,48.83
2019-01-30T02:18:08.620Z,63.72
2019-01-30T02:19:07.295Z,60.79
2019-01-30T02:20:07.449Z,53.71
2019-01-30T02:21:07.609Z,52.73
2019-01-30T02:22:07.766Z,58.84
2019-01-30T02:23:07.947Z,51.76
2019-01-30T02:24:08.945Z,50.78
2019-01-30T02:25:08.263Z,51.51
2019-01-30T02:26:08.439Z,51.51
2019-01-30T02:27:08.601Z,51.27
2019-01-30T02:28:08.762Z,52.73
2019-01-30T02:29:08.940Z,48.34
2019-01-30T02:30:09.109Z,56.15
2019-01-30T02:31:09.279Z,66.41
2019-01-30T02:32:09.441Z,57.86
2019-01-30T02:33:09.613Z,50.29
2019-01-30T02:34:09.776Z,49.80
2019-01-30T02:35:09.948Z,49.80
2019-01-30T02:36:10.116Z,52.00
2019-01-30T02:37:10.274Z,53.22
2019-01-30T02:38:10.440Z,50.54
2019-01-30T02:39:10.596Z,50.54
2019-01-30T02:40:10.765Z,48.58
2019-01-30T02:41:10.935Z,49.56
2019-01-30T02:42:11.102Z,47.61
2019-01-30T02:43:11.273Z,52.00
2019-01-30T02:44:11.433Z,51.03
2019-01-30T02:45:11.608Z,55.18
2019-01-30T02:46:11.769Z,50.54
2019-01-30T02:47:11.939Z,50.05
2019-01-30T02:48:12.108Z,48.58
2019-01-30T02:49:12.278Z,49.07
2019-01-30T02:50:12.442Z,48.83
2019-01-30T02:51:12.612Z,55.18
2019-01-30T02:52:12.776Z,52.25
2019-01-30T02:53:12.946Z,49.56
2019-01-30T02:54:13.106Z,50.05
2019-01-30T02:55:13.272Z,54.69
2019-01-30T02:56:13.434Z,53.71
2019-01-30T02:57:13.602Z,51.51
2019-01-30T02:58:13.772Z,52.00
2019-01-30T02:59:13.938Z,59.08
2019-01-30T03:00:14.105Z,52.49
2019-01-30T03:01:14.279Z,49.56
2019-01-30T03:02:14.439Z,50.29
2019-01-30T03:03:14.608Z,55.66
2019-01-30T03:04:14.772Z,49.07
2019-01-30T03:05:14.939Z,49.32
2019-01-30T03:06:15.207Z,55.66
2019-01-30T03:07:15.281Z,61.28
2019-01-30T03:08:15.445Z,61.28
2019-01-30T03:09:15.617Z,52.25
2019-01-30T03:10:15.785Z,51.27
2019-01-30T03:11:15.958Z,52.49
2019-01-30T03:12:16.135Z,76.90
2019-01-30T03:13:16.301Z,64.94
2019-01-30T03:14:16.461Z,56.40
2019-01-30T03:15:16.638Z,58.35
2019-01-30T03:16:16.801Z,77.39
2019-01-30T03:17:16.963Z,59.57
2019-01-30T03:18:17.132Z,62.74
2019-01-30T03:19:17.300Z,49.80
2019-01-30T03:20:17.487Z,51.51
2019-01-30T03:21:17.635Z,49.56
2019-01-30T03:22:17.812Z,50.54
2019-01-30T03:23:17.967Z,49.07
2019-01-30T03:24:18.137Z,49.32
2019-01-30T03:25:18.305Z,51.03
2019-01-30T03:26:18.473Z,49.80
2019-01-30T03:27:18.647Z,51.51
2019-01-30T03:28:18.913Z,49.07
2019-01-30T03:29:18.985Z,48.83
2019-01-30T03:30:19.145Z,60.79
2019-01-30T03:31:19.676Z,51.76
2019-01-30T03:32:19.494Z,49.32
2019-01-30T03:33:19.678Z,51.27
2019-01-30T03:34:19.832Z,50.78
2019-01-30T03:35:19.982Z,53.96
2019-01-30T03:36:20.165Z,50.05
2019-01-30T03:37:20.322Z,49.80
2019-01-30T03:38:20.490Z,47.61
2019-01-30T03:39:20.670Z,52.00
2019-01-30T03:40:20.846Z,59.33
2019-01-30T03:41:20.994Z,51.27
2019-01-30T03:42:21.164Z,48.83
2019-01-30T03:43:21.340Z,49.56
2019-01-30T03:44:21.498Z,52.49
2019-01-30T03:45:21.662Z,48.58
2019-01-30T03:46:21.833Z,49.56
2019-01-30T03:47:22.007Z,48.58
2019-01-30T03:48:22.172Z,54.20
2019-01-30T03:49:22.339Z,60.30
2019-01-30T03:50:22.509Z,63.72
2019-01-30T03:51:22.674Z,52.25
2019-01-30T03:52:22.839Z,50.29
2019-01-30T03:53:23.018Z,51.51
2019-01-30T03:54:23.178Z,56.15
2019-01-30T03:55:23.351Z,54.44
2019-01-30T03:56:23.510Z,53.47
2019-01-30T03:57:23.678Z,55.66
2019-01-30T03:58:23.850Z,55.66
2019-01-30T03:59:24.018Z,58.11
2019-01-30T04:00:24.192Z,53.22
2019-01-30T04:01:26.646Z,52.98
2019-01-30T04:02:24.524Z,51.27
2019-01-30T04:03:24.690Z,49.56
2019-01-30T04:04:24.871Z,50.29
2019-01-30T04:05:25.021Z,49.32
2019-01-30T04:06:25.187Z,49.07
2019-01-30T04:07:25.358Z,49.32
2019-01-30T04:08:25.527Z,48.58
2019-01-30T04:09:25.711Z,53.71
2019-01-30T04:10:25.842Z,50.54
2019-01-30T04:11:26.045Z,56.64
2019-01-30T04:12:26.182Z,50.05
2019-01-30T04:13:26.344Z,51.03
2019-01-30T04:14:26.531Z,50.05
2019-01-30T04:15:26.691Z,49.32
2019-01-30T04:16:26.932Z,51.27
2019-01-30T04:17:27.028Z,52.98
2019-01-30T04:18:27.246Z,51.51
2019-01-30T04:19:27.358Z,70.31
2019-01-30T04:20:27.533Z,70.80
2019-01-30T04:21:27.689Z,62.50
2019-01-30T04:22:27.854Z,55.66
2019-01-30T04:23:28.024Z,75.93
2019-01-30T04:24:28.194Z,51.51
2019-01-30T04:25:28.362Z,67.87
2019-01-30T04:26:28.533Z,50.54
2019-01-30T04:27:28.698Z,50.05
2019-01-30T04:28:28.906Z,66.16
2019-01-30T04:29:29.037Z,67.38
2019-01-30T04:30:29.203Z,50.29
2019-01-30T04:31:37.992Z,50.78
2019-01-30T04:32:29.564Z,52.25
2019-01-30T04:33:29.712Z,55.66
2019-01-30T04:34:29.878Z,52.25
2019-01-30T04:35:30.054Z,51.03
2019-01-30T04:36:30.208Z,53.96
2019-01-30T04:37:30.385Z,56.15
2019-01-30T04:38:30.559Z,62.26
2019-01-30T04:39:30.756Z,61.77
2019-01-30T04:40:30.888Z,53.71
2019-01-30T04:41:31.058Z,53.22
2019-01-30T04:42:31.219Z,59.57
2019-01-30T04:43:31.393Z,57.62
2019-01-30T04:44:31.555Z,55.42
2019-01-30T04:45:31.722Z,50.05
2019-01-30T04:46:31.872Z,52.25
2019-01-30T04:47:32.041Z,54.69
2019-01-30T04:48:32.210Z,53.96
2019-01-30T04:49:32.378Z,51.03
2019-01-30T04:50:32.553Z,49.07
2019-01-30T04:51:32.718Z,51.27
2019-01-30T04:52:32.878Z,49.80
2019-01-30T04:53:33.046Z,50.78
2019-01-30T04:54:33.221Z,57.86
2019-01-30T04:55:33.385Z,53.96
2019-01-30T04:56:33.550Z,50.78
2019-01-30T04:57:33.732Z,55.18
2019-01-30T04:58:33.885Z,51.03
2019-01-30T04:59:34.052Z,50.29
2019-01-30T05:00:34.220Z,72.75
2019-01-30T05:01:34.389Z,54.44
2019-01-30T05:02:34.548Z,48.83
2019-01-30T05:03:34.720Z,49.56
2019-01-30T05:04:34.885Z,49.80
2019-01-30T05:05:35.054Z,50.54
2019-01-30T05:06:35.236Z,51.03
2019-01-30T05:07:35.389Z,49.56
2019-01-30T05:08:35.559Z,48.58
2019-01-30T05:09:35.733Z,50.05
2019-01-30T05:10:35.903Z,51.51
2019-01-30T05:11:36.068Z,50.78
2019-01-30T05:12:36.244Z,53.22
2019-01-30T05:13:36.414Z,57.86
2019-01-30T05:14:36.553Z,48.10
2019-01-30T05:15:36.717Z,72.51
2019-01-30T05:16:37.464Z,56.88
2019-01-30T05:17:37.042Z,48.34
2019-01-30T05:18:37.197Z,48.10
2019-01-30T05:19:37.371Z,61.28
2019-01-30T05:20:37.530Z,52.00
2019-01-30T05:21:37.698Z,59.81
2019-01-30T05:22:37.871Z,60.06
2019-01-30T05:23:38.035Z,58.59
2019-01-30T05:24:38.208Z,59.57
2019-01-30T05:25:38.374Z,53.47
2019-01-30T05:26:38.549Z,59.08
2019-01-30T05:27:38.710Z,58.35
2019-01-30T05:28:38.878Z,55.18
2019-01-30T05:29:39.049Z,53.47
2019-01-30T05:30:39.226Z,69.34
2019-01-30T05:31:39.391Z,55.66
2019-01-30T05:32:39.555Z,66.89
2019-01-30T05:33:39.718Z,70.80
2019-01-30T05:35:40.046Z,55.42
2019-01-30T05:36:40.215Z,56.15
2019-01-30T05:38:40.591Z,58.84
2019-01-30T05:39:40.734Z,53.47
2019-01-30T06:09:45.589Z,60.55
2019-01-30T06:10:45.755Z,61.28
2019-01-30T06:12:46.090Z,58.59
2019-01-30T06:13:46.264Z,59.08
2019-01-30T06:14:46.426Z,55.66
2019-01-30T06:15:46.597Z,63.96
2019-01-30T06:16:46.767Z,59.33
2019-01-30T06:17:46.928Z,56.88
2019-01-30T06:21:47.579Z,54.20
2019-01-30T06:22:47.758Z,60.55
2019-01-30T06:23:47.915Z,62.01
2019-01-30T06:24:48.082Z,57.86
2019-01-30T06:25:48.258Z,57.13
2019-01-30T06:26:48.418Z,59.57
2019-01-30T06:27:48.599Z,57.86
2019-01-30T06:28:48.751Z,68.12
2019-01-30T06:29:48.937Z,65.92
2019-01-30T06:30:49.082Z,65.19
2019-01-30T06:32:49.413Z,59.33
2019-01-30T06:33:49.591Z,66.65
2019-01-30T06:37:50.230Z,63.48
2019-01-30T06:38:50.401Z,70.07
2019-01-30T06:39:50.566Z,65.92
2019-01-30T06:40:50.759Z,66.41
2019-01-30T06:41:50.898Z,66.65
2019-01-30T06:42:51.073Z,62.50
2019-01-30T06:43:51.229Z,64.45
2019-01-30T06:44:51.399Z,62.74
2019-01-30T06:45:51.564Z,69.82
2019-01-30T06:46:51.732Z,69.09
2019-01-30T06:47:51.911Z,66.16
2019-01-30T06:48:52.066Z,67.87
2019-01-30T06:49:52.271Z,66.89
2019-01-30T06:50:52.418Z,74.22
2019-01-30T06:51:52.595Z,73.24
2019-01-30T06:52:52.767Z,72.02
2019-01-30T06:53:52.929Z,80.08
2019-01-30T06:54:53.102Z,67.63
2019-01-30T06:55:53.271Z,62.01
2019-01-30T06:56:53.444Z,66.89
2019-01-30T06:57:53.607Z,70.56
2019-01-30T06:58:53.774Z,68.60
2019-01-30T06:59:53.943Z,72.27
2019-01-30T07:00:54.111Z,74.95
2019-01-30T07:01:54.283Z,68.60
2019-01-30T07:02:54.445Z,67.63
2019-01-30T07:03:54.615Z,67.14
2019-01-30T07:04:54.781Z,77.39
2019-01-30T07:05:54.949Z,63.96
2019-01-30T07:06:55.114Z,64.45
2019-01-30T07:07:55.292Z,61.28
2019-01-30T07:08:55.460Z,59.33
2019-01-30T07:09:55.630Z,64.21
2019-01-30T07:10:55.822Z,64.21
2019-01-30T07:11:56.004Z,69.34
2019-01-30T07:12:56.184Z,68.60
2019-01-30T07:13:56.362Z,70.56
2019-01-30T07:14:56.528Z,68.36
2019-01-30T07:15:56.718Z,67.63
2019-01-30T07:16:56.906Z,67.87
2019-01-30T07:17:57.056Z,63.23
2019-01-30T07:18:57.181Z,67.63
2019-01-30T07:19:57.363Z,63.96
2019-01-30T07:20:57.527Z,64.94
2019-01-30T07:21:57.831Z,62.01
2019-01-30T07:22:58.479Z,75.93
2019-01-30T07:23:58.172Z,69.09
2019-01-30T07:24:58.329Z,66.41
2019-01-30T07:25:58.539Z,69.09
2019-01-30T07:26:58.748Z,59.33
2019-01-30T07:27:58.905Z,55.66
2019-01-30T07:28:59.032Z,64.45
2019-01-30T07:29:59.201Z,67.87
2019-01-30T07:30:59.418Z,69.58
2019-01-30T07:31:59.570Z,71.04
2019-01-30T07:32:59.891Z,59.57
2019-01-30T07:33:59.884Z,57.86
2019-01-30T07:35:00.037Z,64.94
2019-01-30T07:36:00.243Z,63.23
2019-01-30T07:37:00.408Z,67.87
2019-01-30T07:38:00.597Z,65.19
2019-01-30T07:39:00.870Z,61.04
2019-01-30T07:40:01.045Z,65.92
2019-01-30T07:41:01.160Z,66.65
2019-01-30T07:42:01.346Z,62.99
2019-01-30T07:43:01.538Z,63.48
2019-01-30T07:44:01.808Z,68.36
2019-01-30T07:45:01.859Z,74.22
2019-01-30T07:46:02.018Z,68.36
2019-01-30T07:47:02.188Z,66.65
2019-01-30T07:48:02.380Z,66.16
2019-01-30T07:49:02.632Z,63.96
2019-01-30T07:50:02.771Z,68.36
2019-01-30T07:51:02.933Z,65.19
2019-01-30T07:52:03.118Z,59.33
2019-01-30T07:53:03.274Z,59.57
2019-01-30T07:54:03.442Z,63.48
2019-01-30T07:55:03.586Z,65.19
2019-01-30T07:56:03.866Z,63.72
2019-01-30T07:57:03.918Z,63.23
2019-01-30T07:58:05.813Z,74.95
2019-01-30T07:59:04.252Z,59.81
2019-01-30T08:00:04.392Z,74.22
2019-01-30T08:01:04.559Z,71.78
2019-01-30T08:02:04.747Z,63.23
2019-01-30T08:03:04.964Z,69.34
2019-01-30T08:04:05.099Z,76.42
2019-01-30T08:05:05.243Z,64.45
2019-01-30T08:06:05.414Z,60.30
2019-01-30T08:07:05.583Z,58.59
2019-01-30T08:08:05.772Z,72.75
2019-01-30T08:09:05.893Z,69.09
2019-01-30T08:10:06.055Z,60.79
2019-01-30T08:11:07.435Z,65.92
2019-01-30T08:12:06.990Z,62.01
2019-01-30T08:13:06.561Z,63.48
2019-01-30T08:14:06.762Z,63.72
2019-01-30T08:15:06.891Z,70.31
2019-01-30T08:16:07.108Z,82.28
2019-01-30T08:17:07.246Z,67.14
2019-01-30T08:18:07.391Z,67.14
2019-01-30T08:19:07.655Z,60.79
2019-01-30T08:20:07.820Z,57.37
2019-01-30T08:21:07.931Z,56.15
2019-01-30T08:22:08.114Z,55.18
2019-01-30T08:23:08.732Z,79.59
2019-01-30T08:24:08.792Z,64.21
2019-01-30T08:25:08.667Z,59.08
2019-01-30T08:26:09.175Z,67.38
2019-01-30T08:27:09.257Z,61.77
2019-01-30T08:28:09.151Z,60.30
2019-01-30T08:29:09.680Z,57.13
2019-01-30T08:30:09.878Z,71.53
2019-01-30T08:31:09.851Z,61.77
2019-01-30T08:32:10.050Z,61.28
2019-01-30T08:33:10.137Z,57.13
2019-01-30T08:34:10.196Z,59.33
2019-01-30T08:35:10.329Z,62.50
2019-01-30T08:36:10.605Z,63.96
2019-01-30T08:37:10.716Z,58.35
2019-01-30T08:38:10.919Z,57.37
2019-01-30T08:39:11.073Z,63.23
2019-01-30T08:40:11.244Z,63.48
2019-01-30T08:41:11.431Z,73.00
2019-01-30T08:42:11.657Z,62.01
2019-01-30T08:43:11.742Z,67.38
2019-01-30T08:44:11.965Z,64.70
2019-01-30T08:45:12.122Z,67.14
2019-01-30T08:46:12.324Z,72.51
2019-01-30T08:47:12.478Z,66.16
2019-01-30T08:48:12.661Z,61.04
2019-01-30T08:49:12.863Z,61.52
2019-01-30T08:50:12.957Z,72.02
2019-01-30T08:51:13.123Z,72.27
2019-01-30T08:52:13.292Z,71.53
2019-01-30T08:53:13.457Z,71.53
2019-01-30T08:54:13.630Z,80.08
2019-01-30T08:55:13.798Z,64.45
2019-01-30T08:56:14.022Z,68.36
2019-01-30T08:57:14.155Z,61.28
2019-01-30T08:58:14.330Z,61.77
2019-01-30T08:59:14.483Z,63.72
2019-01-30T09:00:14.655Z,71.78
2019-01-30T09:01:14.851Z,67.14
2019-01-30T09:02:15.067Z,62.74
2019-01-30T09:03:15.288Z,62.26
2019-01-30T09:04:15.320Z,62.01
2019-01-30T09:05:15.519Z,61.77
2019-01-30T09:06:15.637Z,60.30
2019-01-30T09:07:15.889Z,55.18
2019-01-30T09:08:16.035Z,60.55
2019-01-30T09:09:16.277Z,59.33
2019-01-30T09:10:16.405Z,69.09
2019-01-30T09:11:16.620Z,65.67
2019-01-30T09:12:16.844Z,67.87
2019-01-30T09:13:17.107Z,75.44
2019-01-30T09:14:17.183Z,70.80
2019-01-30T09:15:17.340Z,75.20
2019-01-30T09:16:17.516Z,61.52
2019-01-30T09:17:17.686Z,64.45
2019-01-30T09:18:17.912Z,69.34
2019-01-30T09:19:18.146Z,59.81
2019-01-30T09:20:18.254Z,58.84
2019-01-30T09:21:18.460Z,61.77
2019-01-30T09:22:18.579Z,60.79
2019-01-30T09:23:18.730Z,69.58
2019-01-30T09:24:18.971Z,67.14
2019-01-30T09:25:19.170Z,78.37
2019-01-30T09:26:19.310Z,65.19
2019-01-30T09:27:19.469Z,64.45
2019-01-30T09:28:19.872Z,67.63
2019-01-30T09:29:19.891Z,65.92
2019-01-30T09:30:20.015Z,68.36
2019-01-30T09:31:20.244Z,83.98
2019-01-30T09:32:20.368Z,64.70
2019-01-30T09:33:25.846Z,73.00
2019-01-30T09:34:20.726Z,60.06
2019-01-30T09:35:20.875Z,65.67
2019-01-30T09:36:21.072Z,64.70
2019-01-30T09:37:21.219Z,61.28
2019-01-30T09:38:21.446Z,63.72
2019-01-30T09:39:21.538Z,63.23
2019-01-30T09:40:21.849Z,63.96
2019-01-30T09:41:21.999Z,63.48
2019-01-30T09:42:22.079Z,59.33
2019-01-30T09:43:22.311Z,67.38
2019-01-30T09:44:22.512Z,63.23
2019-01-30T09:45:22.635Z,69.58
2019-01-30T09:46:22.779Z,72.75
2019-01-30T09:47:22.910Z,67.87
2019-01-30T09:48:23.062Z,73.00
2019-01-30T09:49:23.366Z,77.39
2019-01-30T09:50:23.455Z,60.06
2019-01-30T09:51:23.591Z,64.94
2019-01-30T09:52:26.891Z,63.23
2019-01-30T09:53:23.993Z,60.30
2019-01-30T09:54:24.035Z,67.87
2019-01-30T09:55:24.315Z,63.23
2019-01-30T09:56:24.450Z,71.04
2019-01-30T09:57:24.710Z,64.94
2019-01-30T09:58:24.711Z,63.72
2019-01-30T09:59:24.903Z,62.99
2019-01-30T10:00:25.079Z,76.42
2019-01-30T10:01:25.247Z,69.58
2019-01-30T10:02:25.596Z,61.52
2019-01-30T10:03:35.759Z,64.21
2019-01-30T10:04:25.825Z,64.45
2019-01-30T10:05:25.946Z,66.89
2019-01-30T10:06:26.059Z,65.19
2019-01-30T10:07:26.225Z,67.14
2019-01-30T10:08:26.571Z,65.43
2019-01-30T10:09:26.597Z,65.19
2019-01-30T10:10:26.772Z,61.04
2019-01-30T10:11:26.959Z,72.27
2019-01-30T10:12:27.199Z,65.19
2019-01-30T10:13:27.317Z,70.31
2019-01-30T10:14:27.557Z,64.94
2019-01-30T10:15:27.657Z,74.95
2019-01-30T10:16:27.801Z,63.48
2019-01-30T10:17:27.940Z,61.04
2019-01-30T10:18:28.121Z,61.52
2019-01-30T10:19:28.317Z,61.77
2019-01-30T10:20:28.457Z,62.99
2019-01-30T10:21:28.650Z,64.21
2019-01-30T10:22:28.880Z,62.99
2019-01-30T10:23:28.986Z,64.94
2019-01-30T10:24:29.236Z,64.70
2019-01-30T10:25:29.367Z,64.94
2019-01-30T10:26:29.616Z,63.96
2019-01-30T10:27:29.731Z,62.50
2019-01-30T10:28:29.917Z,57.37
2019-01-30T10:29:30.243Z,64.70
2019-01-30T10:30:30.328Z,72.51
2019-01-30T10:31:30.405Z,69.34
2019-01-30T10:32:30.569Z,61.28
2019-01-30T10:33:30.757Z,64.94
2019-01-30T10:34:30.912Z,63.23
2019-01-30T10:35:31.072Z,63.23
2019-01-30T10:36:31.267Z,66.89
2019-01-30T10:37:31.464Z,63.96
2019-01-30T10:38:31.577Z,60.79
2019-01-30T10:39:31.705Z,65.67
2019-01-30T10:40:31.869Z,78.86
2019-01-30T10:41:32.042Z,65.19
2019-01-30T10:42:32.219Z,65.43
2019-01-30T10:43:32.391Z,66.65
2019-01-30T10:44:32.618Z,63.96
2019-01-30T10:45:32.774Z,69.82
2019-01-30T10:46:32.978Z,69.58
2019-01-30T10:47:33.129Z,60.79
2019-01-30T10:48:33.315Z,73.00
2019-01-30T10:49:33.428Z,62.01
2019-01-30T10:50:33.657Z,62.01
2019-01-30T10:51:33.839Z,66.41
2019-01-30T10:52:34.006Z,63.48
2019-01-30T10:53:34.173Z,60.30
2019-01-30T10:54:34.351Z,76.66
2019-01-30T10:55:34.524Z,73.73
2019-01-30T10:56:34.708Z,70.56
2019-01-30T10:57:34.837Z,64.21
2019-01-30T10:58:35.028Z,64.94
2019-01-30T10:59:35.187Z,86.18
2019-01-30T11:00:35.373Z,72.51
2019-01-30T11:01:35.532Z,86.43
2019-01-30T11:02:35.672Z,86.67
2019-01-30T11:03:35.806Z,87.40
2019-01-30T11:04:36.012Z,85.69
2019-01-30T11:05:36.188Z,86.43
2019-01-30T11:06:36.322Z,85.21
2019-01-30T11:07:36.500Z,61.28
2019-01-30T11:08:37.511Z,61.28
2019-01-30T11:09:36.847Z,63.72
2019-01-30T11:10:36.998Z,63.72
2019-01-30T11:11:37.221Z,59.08
2019-01-30T11:12:37.402Z,62.99
2019-01-30T11:13:37.528Z,65.92
2019-01-30T11:14:37.885Z,68.60
2019-01-30T11:15:37.942Z,73.73
2019-01-30T11:16:38.069Z,76.42
2019-01-30T11:17:38.227Z,75.44
2019-01-30T11:18:38.434Z,78.86
2019-01-30T11:19:38.664Z,66.41
2019-01-30T11:20:38.777Z,65.43
2019-01-30T11:21:38.926Z,61.77
2019-01-30T11:22:39.163Z,63.72
2019-01-30T11:23:39.274Z,62.99
2019-01-30T11:24:39.427Z,61.52
2019-01-30T11:25:39.720Z,60.30
2019-01-30T11:26:39.783Z,68.12
2019-01-30T11:27:40.030Z,64.45
2019-01-30T11:28:40.123Z,65.67
2019-01-30T11:29:40.268Z,83.74
2019-01-30T11:30:40.505Z,67.63
2019-01-30T11:31:40.686Z,65.43
2019-01-30T11:32:40.839Z,61.77
2019-01-30T11:33:41.028Z,64.21
2019-01-30T11:34:41.198Z,66.41
2019-01-30T11:35:41.373Z,71.78
2019-01-30T11:36:41.548Z,68.36
2019-01-30T11:37:41.725Z,63.23
2019-01-30T11:38:41.881Z,79.59
2019-01-30T11:39:42.022Z,63.72
2019-01-30T11:40:42.237Z,74.71
2019-01-30T11:41:42.390Z,59.81
2019-01-30T11:42:42.577Z,61.52
2019-01-30T11:43:42.761Z,61.77
2019-01-30T11:44:42.965Z,66.16
2019-01-30T11:45:43.087Z,69.58
2019-01-30T11:46:43.257Z,67.38
2019-01-30T11:47:43.411Z,62.99
2019-01-30T11:48:43.608Z,65.43
2019-01-30T11:49:43.739Z,64.94
2019-01-30T11:50:43.919Z,65.67
2019-01-30T11:51:44.080Z,75.20
2019-01-30T11:52:44.280Z,71.29
2019-01-30T11:53:44.423Z,63.48
2019-01-30T11:54:44.656Z,66.65
2019-01-30T11:55:44.809Z,69.58
2019-01-30T11:56:45.030Z,67.38
2019-01-30T11:57:45.126Z,65.43
2019-01-30T11:58:45.300Z,59.33
2019-01-30T11:59:45.479Z,69.09
2019-01-30T12:00:45.635Z,73.49
2019-01-30T12:01:45.817Z,59.57
2019-01-30T12:02:47.881Z,65.19
2019-01-30T12:03:46.179Z,59.81
2019-01-30T12:04:46.408Z,59.81
2019-01-30T12:05:46.493Z,59.33
2019-01-30T12:06:46.665Z,63.72
2019-01-30T12:07:46.831Z,62.50
2019-01-30T12:08:47.104Z,64.94
2019-01-30T12:09:47.182Z,67.87
2019-01-30T12:10:47.327Z,76.42
2019-01-30T12:11:47.501Z,67.38
2019-01-30T12:12:47.664Z,64.94
2019-01-30T12:13:47.847Z,68.60
2019-01-30T12:14:48.012Z,64.21
2019-01-30T12:15:48.184Z,65.19
2019-01-30T12:16:48.346Z,61.28
2019-01-30T12:17:48.508Z,72.51
2019-01-30T12:18:48.725Z,66.41
2019-01-30T12:19:48.901Z,78.37
2019-01-30T12:20:51.850Z,66.16
2019-01-30T12:21:49.241Z,60.79
2019-01-30T12:22:49.410Z,64.45
2019-01-30T12:23:49.580Z,63.48
2019-01-30T12:24:49.793Z,58.84
2019-01-30T12:25:49.938Z,59.08
2019-01-30T12:26:50.116Z,81.54
2019-01-30T12:27:50.896Z,84.47
2019-01-30T12:28:50.432Z,61.04
2019-01-30T12:29:50.605Z,63.48
2019-01-30T12:30:50.774Z,71.29
2019-01-30T12:31:50.945Z,64.94
2019-01-30T12:32:51.117Z,69.82
2019-01-30T12:33:51.302Z,62.99
2019-01-30T12:34:51.468Z,68.85
2019-01-30T12:35:51.635Z,74.46
2019-01-30T12:36:51.820Z,73.49
2019-01-30T12:37:51.985Z,67.63
2019-01-30T12:38:52.240Z,61.77
2019-01-30T12:39:52.362Z,67.14
2019-01-30T12:40:52.495Z,69.34
2019-01-30T12:41:52.699Z,74.95
2019-01-30T12:42:52.967Z,62.26
2019-01-30T12:43:53.085Z,62.01
2019-01-30T12:44:53.235Z,60.30
2019-01-30T12:45:53.451Z,72.75
2019-01-30T12:46:53.563Z,63.72
2019-01-30T12:47:53.768Z,67.63
2019-01-30T12:48:53.933Z,61.77
2019-01-30T12:49:54.259Z,66.65
2019-01-30T12:50:54.371Z,76.66
2019-01-30T12:51:54.480Z,59.81
2019-01-30T12:52:54.630Z,62.01
2019-01-30T12:53:54.891Z,62.26
2019-01-30T12:54:55.017Z,62.26
2019-01-30T12:55:55.224Z,66.16
2019-01-30T12:56:55.427Z,67.87
2019-01-30T12:57:55.632Z,66.89
2019-01-30T12:58:55.803Z,61.04
2019-01-30T12:59:55.959Z,63.96
2019-01-30T13:00:56.084Z,71.78
2019-01-30T13:01:56.222Z,70.80
2019-01-30T13:02:56.379Z,66.41
2019-01-30T13:03:56.572Z,63.48
2019-01-30T13:04:56.739Z,59.57
2019-01-30T13:05:56.973Z,61.77
2019-01-30T13:06:57.120Z,61.77
2019-01-30T13:07:57.287Z,61.28
2019-01-30T13:08:57.463Z,70.80
2019-01-30T13:09:57.643Z,67.14
2019-01-30T13:10:57.859Z,57.37
2019-01-30T13:11:58.069Z,58.84
2019-01-30T13:12:58.274Z,63.96
2019-01-30T13:13:58.512Z,60.55
2019-01-30T13:14:58.592Z,68.12
2019-01-30T13:15:58.726Z,72.51
2019-01-30T13:16:58.906Z,68.12
2019-01-30T13:17:59.055Z,70.80
2019-01-30T13:18:59.261Z,67.14
2019-01-30T13:19:59.493Z,68.12
2019-01-30T13:20:59.663Z,67.14
2019-01-30T13:21:59.784Z,61.77
2019-01-30T13:22:59.966Z,61.04
2019-01-30T13:24:00.167Z,61.28
2019-01-30T13:25:00.429Z,64.70
2019-01-30T13:26:00.512Z,62.26
2019-01-30T13:27:00.872Z,64.21
2019-01-30T13:28:00.798Z,62.01
2019-01-30T13:29:01.027Z,63.96
2019-01-30T13:30:01.203Z,68.12
2019-01-30T13:31:01.361Z,63.23
2019-01-30T13:32:01.501Z,58.35
2019-01-30T13:33:01.680Z,65.43
2019-01-30T13:34:01.831Z,60.30
2019-01-30T13:35:02.001Z,65.19
2019-01-30T13:36:02.233Z,62.01